createdAt,value
2018-08-27T00:00:52.715Z,936.56
2018-08-27T00:01:52.721Z,936.57
2018-08-27T00:02:53.089Z,936.59
2018-08-27T00:03:53.031Z,936.55
2018-08-27T00:04:52.879Z,936.59
2018-08-27T00:05:52.901Z,936.52
2018-08-27T00:06:52.920Z,936.55
2018-08-27T00:07:52.977Z,936.53
2018-08-27T00:08:53.262Z,936.52
2018-08-27T00:09:53.075Z,936.54
2018-08-27T00:10:53.075Z,936.49
2018-08-27T00:11:53.113Z,936.50
2018-08-27T00:12:53.170Z,936.53
2018-08-27T00:13:53.212Z,936.51
2018-08-27T00:14:53.505Z,936.54
2018-08-27T00:15:53.305Z,936.57
2018-08-27T00:16:53.343Z,936.51
2018-08-27T00:17:53.384Z,936.56
2018-08-27T00:18:53.419Z,936.58
2018-08-27T00:20:27.013Z,936.60
2018-08-27T00:20:53.510Z,936.54
2018-08-27T00:21:53.526Z,936.55
2018-08-27T00:22:53.547Z,936.58
2018-08-27T00:23:53.587Z,936.57
2018-08-27T00:24:53.696Z,936.51
2018-08-27T00:27:39.755Z,936.59
2018-08-27T00:29:13.018Z,936.59
2018-08-27T00:31:23.601Z,936.54
2018-08-27T00:32:57.119Z,936.56
2018-08-27T00:35:07.453Z,936.57
2018-08-27T00:36:40.720Z,936.57
2018-08-27T00:38:51.554Z,936.56
2018-08-27T00:40:24.570Z,936.55
2018-08-27T00:42:35.154Z,936.58
2018-08-27T00:44:08.421Z,936.59
2018-08-27T00:46:19.256Z,936.57
2018-08-27T00:47:52.274Z,936.59
2018-08-27T00:50:02.856Z,936.63
2018-08-27T00:51:36.428Z,936.56
2018-08-27T00:53:46.960Z,936.56
2018-08-27T00:55:20.225Z,936.58
2018-08-27T00:57:30.809Z,936.60
2018-08-27T00:59:04.377Z,936.61
2018-08-27T01:01:14.662Z,936.65
2018-08-27T01:02:47.925Z,936.62
2018-08-27T01:04:58.509Z,936.66
2018-08-27T01:06:31.776Z,936.63
2018-08-27T01:08:42.362Z,936.63
2018-08-27T01:10:15.928Z,936.59
2018-08-27T01:11:34.864Z,936.58
2018-08-27T01:11:42.506Z,936.60
2018-08-27T01:12:42.545Z,936.63
2018-08-27T01:13:42.564Z,936.62
2018-08-27T01:14:42.591Z,936.63
2018-08-27T01:15:42.700Z,936.61
2018-08-27T01:16:43.296Z,936.65
2018-08-27T01:17:42.729Z,936.63
2018-08-27T01:18:42.776Z,936.62
2018-08-27T01:21:26.568Z,936.64
2018-08-27T01:22:59.840Z,936.64
2018-08-27T01:25:10.421Z,936.64
2018-08-27T01:26:43.688Z,936.60
2018-08-27T01:28:54.522Z,936.59
2018-08-27T01:30:27.790Z,936.65
2018-08-27T01:32:38.373Z,936.58
2018-08-27T01:33:38.727Z,936.66
2018-08-27T01:34:38.469Z,936.68
2018-08-27T01:35:38.490Z,936.70
2018-08-27T01:36:38.540Z,936.68
2018-08-27T01:37:38.597Z,936.71
2018-08-27T01:38:38.633Z,936.69
2018-08-27T01:39:38.652Z,936.68
2018-08-27T01:40:38.684Z,936.64
2018-08-27T01:41:38.790Z,936.64
2018-08-27T01:42:38.784Z,936.72
2018-08-27T01:43:38.820Z,936.62
2018-08-27T01:44:39.172Z,936.67
2018-08-27T01:47:22.658Z,936.64
2018-08-27T01:48:55.924Z,936.67
2018-08-27T01:51:06.809Z,936.62
2018-08-27T01:52:39.776Z,936.63
2018-08-27T01:54:50.361Z,936.58
2018-08-27T01:56:23.626Z,936.57
2018-08-27T01:58:34.461Z,936.50
2018-08-27T02:00:07.727Z,936.49
2018-08-27T02:02:18.511Z,936.51
2018-08-27T02:03:52.030Z,936.51
2018-08-27T02:06:02.313Z,936.55
2018-08-27T02:07:35.630Z,936.54
2018-08-27T02:09:46.714Z,936.56
2018-08-27T02:11:19.633Z,936.60
2018-08-27T02:13:30.316Z,936.62
2018-08-27T02:15:03.681Z,936.56
2018-08-27T02:17:14.216Z,936.57
2018-08-27T02:18:47.432Z,936.56
2018-08-27T02:20:58.576Z,936.57
2018-08-27T02:22:31.433Z,936.52
2018-08-27T02:24:42.116Z,936.53
2018-08-27T02:26:15.535Z,936.48
2018-08-27T02:28:26.368Z,936.51
2018-08-27T02:29:59.685Z,936.49
2018-08-27T02:32:10.318Z,936.51
2018-08-27T02:33:10.671Z,936.50
2018-08-27T02:34:10.314Z,936.47
2018-08-27T02:35:10.413Z,936.52
2018-08-27T02:36:10.384Z,936.48
2018-08-27T02:37:10.442Z,936.50
2018-08-27T02:38:10.576Z,936.48
2018-08-27T02:39:10.905Z,936.47
2018-08-27T02:40:10.531Z,936.45
2018-08-27T02:41:10.637Z,936.42
2018-08-27T02:42:10.629Z,936.42
2018-08-27T02:43:10.665Z,936.38
2018-08-27T02:44:10.666Z,936.39
2018-08-27T02:46:54.752Z,936.33
2018-08-27T02:48:28.020Z,936.33
2018-08-27T02:50:38.606Z,936.30
2018-08-27T02:52:11.871Z,936.32
2018-08-27T02:54:22.457Z,936.28
2018-08-27T02:55:55.720Z,936.31
2018-08-27T02:58:06.555Z,936.18
2018-08-27T02:59:39.821Z,936.23
2018-08-27T03:01:50.405Z,936.24
2018-08-27T03:03:23.672Z,936.23
2018-08-27T03:05:34.506Z,936.19
2018-08-27T03:07:07.773Z,936.25
2018-08-27T03:09:18.358Z,936.18
2018-08-27T03:10:51.623Z,936.17
2018-08-27T03:13:02.206Z,936.17
2018-08-27T03:14:35.723Z,936.13
2018-08-27T03:16:46.056Z,936.11
2018-08-27T03:18:19.344Z,936.12
2018-08-27T03:20:29.911Z,936.07
2018-08-27T03:22:03.172Z,936.10
2018-08-27T03:24:13.756Z,936.04
2018-08-27T03:25:47.272Z,936.02
2018-08-27T03:27:57.607Z,935.98
2018-08-27T03:29:30.874Z,935.98
2018-08-27T03:31:41.458Z,935.96
2018-08-27T03:33:14.975Z,935.91
2018-08-27T03:35:25.308Z,935.87
2018-08-27T03:36:58.574Z,935.88
2018-08-27T03:39:09.408Z,935.87
2018-08-27T03:40:42.489Z,935.85
2018-08-27T03:42:53.008Z,935.83
2018-08-27T03:44:26.278Z,935.85
2018-08-27T03:46:37.159Z,935.81
2018-08-27T03:48:10.426Z,935.79
2018-08-27T03:50:21.009Z,935.80
2018-08-27T03:51:54.275Z,935.81
2018-08-27T03:54:04.863Z,935.73
2018-08-27T03:55:38.376Z,935.83
2018-08-27T03:57:48.708Z,935.79
2018-08-27T03:59:21.975Z,935.78
2018-08-27T04:01:32.559Z,935.68
2018-08-27T04:03:05.825Z,935.72
2018-08-27T04:05:16.516Z,935.69
2018-08-27T04:06:49.925Z,935.74
2018-08-27T04:09:00.257Z,935.69
2018-08-27T04:10:33.526Z,935.69
2018-08-27T04:12:44.107Z,935.70
2018-08-27T04:14:17.677Z,935.64
2018-08-27T04:16:27.956Z,935.57
2018-08-27T04:18:01.224Z,935.57
2018-08-27T04:20:11.807Z,935.58
2018-08-27T04:21:45.072Z,935.52
2018-08-27T04:23:55.656Z,935.50
2018-08-27T04:25:29.173Z,935.48
2018-08-27T04:27:39.506Z,935.49
2018-08-27T04:29:12.773Z,935.49
2018-08-27T04:31:23.659Z,935.45
2018-08-27T04:32:56.624Z,935.44
2018-08-27T04:35:07.209Z,935.45
2018-08-27T04:36:40.775Z,935.45
2018-08-27T04:38:51.058Z,935.48
2018-08-27T04:40:24.326Z,935.42
2018-08-27T04:42:35.297Z,935.41
2018-08-27T04:44:08.177Z,935.45
2018-08-27T04:46:18.760Z,935.40
2018-08-27T04:47:52.053Z,935.40
2018-08-27T04:50:02.913Z,935.39
2018-08-27T04:51:36.178Z,935.36
2018-08-27T04:53:46.762Z,935.29
2018-08-27T04:55:20.028Z,935.35
2018-08-27T04:57:30.913Z,935.20
2018-08-27T04:59:04.180Z,935.31
2018-08-27T05:01:14.765Z,935.16
2018-08-27T05:02:48.028Z,935.14
2018-08-27T05:04:58.612Z,935.19
2018-08-27T05:06:32.129Z,935.16
2018-08-27T05:08:42.469Z,935.16
2018-08-27T05:10:15.731Z,935.17
2018-08-27T05:12:26.314Z,935.18
2018-08-27T05:13:59.579Z,935.12
2018-08-27T05:16:10.212Z,935.16
2018-08-27T05:17:43.737Z,935.05
2018-08-27T05:19:54.013Z,935.06
2018-08-27T05:21:27.279Z,935.06
2018-08-27T05:23:37.963Z,935.02
2018-08-27T05:25:11.130Z,935.03
2018-08-27T05:27:21.713Z,934.98
2018-08-27T05:28:55.232Z,935.03
2018-08-27T05:31:05.654Z,934.99
2018-08-27T05:32:38.830Z,934.91
2018-08-27T05:34:49.715Z,934.99
2018-08-27T05:36:22.681Z,934.97
2018-08-27T05:38:33.348Z,934.94
2018-08-27T05:40:06.531Z,934.95
2018-08-27T05:42:17.113Z,934.84
2018-08-27T05:43:50.380Z,934.84
2018-08-27T05:46:01.265Z,934.78
2018-08-27T05:47:34.266Z,934.80
2018-08-27T05:49:44.816Z,934.73
2018-08-27T05:51:18.385Z,934.75
2018-08-27T05:53:28.664Z,934.72
2018-08-27T05:55:01.932Z,934.69
2018-08-27T05:57:12.515Z,934.70
2018-08-27T05:58:45.783Z,934.71
2018-08-27T06:00:56.365Z,934.69
2018-08-27T06:02:29.933Z,934.66
2018-08-27T06:04:40.216Z,934.65
2018-08-27T06:06:13.483Z,934.63
2018-08-27T06:08:24.066Z,934.60
2018-08-27T06:09:57.583Z,934.60
2018-08-27T06:12:07.916Z,934.57
2018-08-27T06:13:41.182Z,934.58
2018-08-27T06:15:52.017Z,934.60
2018-08-27T06:17:25.032Z,934.57
2018-08-27T06:19:35.616Z,934.60
2018-08-27T06:21:08.886Z,934.54
2018-08-27T06:23:19.768Z,934.55
2018-08-27T06:24:53.063Z,934.53
2018-08-27T06:27:03.918Z,934.52
2018-08-27T06:28:36.884Z,934.53
2018-08-27T06:30:47.468Z,934.52
2018-08-27T06:32:20.784Z,934.53
2018-08-27T06:34:31.619Z,934.48
2018-08-27T06:36:04.887Z,934.46
2018-08-27T06:38:15.471Z,934.46
2018-08-27T06:39:48.736Z,934.46
2018-08-27T06:42:00.822Z,934.43
2018-08-27T06:43:34.088Z,934.42
2018-08-27T06:45:44.672Z,934.52
2018-08-27T06:47:18.189Z,934.49
2018-08-27T06:49:28.530Z,934.47
2018-08-27T06:51:01.788Z,934.47
2018-08-27T06:53:12.672Z,934.52
2018-08-27T06:54:45.939Z,934.53
2018-08-27T06:56:56.521Z,934.48
2018-08-27T06:58:30.088Z,934.49
2018-08-27T07:00:40.373Z,934.42
2018-08-27T07:02:13.656Z,934.44
2018-08-27T07:04:24.220Z,934.46
2018-08-27T07:05:57.486Z,934.37
2018-08-27T07:08:08.068Z,934.45
2018-08-27T07:09:41.635Z,934.41
2018-08-27T07:11:52.374Z,934.39
2018-08-27T07:13:25.484Z,934.40
2018-08-27T07:15:36.067Z,934.40
2018-08-27T07:17:09.585Z,934.41
2018-08-27T07:19:19.918Z,934.34
2018-08-27T07:20:53.183Z,934.30
2018-08-27T07:23:04.070Z,934.34
2018-08-27T07:24:37.335Z,934.36
2018-08-27T07:26:47.918Z,934.38
2018-08-27T07:28:21.185Z,934.37
2018-08-27T07:30:31.769Z,934.34
2018-08-27T07:32:05.035Z,934.33
2018-08-27T07:34:15.870Z,934.34
2018-08-27T07:35:49.136Z,934.34
2018-08-27T07:37:59.724Z,934.36
2018-08-27T07:39:33.238Z,934.33
2018-08-27T07:41:43.571Z,934.30
2018-08-27T07:43:16.839Z,934.33
2018-08-27T07:45:27.422Z,934.28
2018-08-27T07:47:00.688Z,934.24
2018-08-27T07:49:11.272Z,934.31
2018-08-27T07:50:44.919Z,934.28
2018-08-27T07:52:55.121Z,934.35
2018-08-27T07:54:28.387Z,934.35
2018-08-27T07:56:38.977Z,934.36
2018-08-27T07:58:12.490Z,934.33
2018-08-27T08:00:22.823Z,934.32
2018-08-27T08:01:56.088Z,934.37
2018-08-27T08:04:06.672Z,934.38
2018-08-27T08:05:39.939Z,934.35
2018-08-27T08:07:50.522Z,934.41
2018-08-27T08:09:24.090Z,934.45
2018-08-27T08:11:34.372Z,934.40
2018-08-27T08:13:07.638Z,934.43
2018-08-27T08:15:18.472Z,934.42
2018-08-27T08:16:51.738Z,934.39
2018-08-27T08:19:02.373Z,934.42
2018-08-27T08:20:35.889Z,934.48
2018-08-27T08:22:46.230Z,934.49
2018-08-27T08:24:19.439Z,934.49
2018-08-27T08:26:30.024Z,934.47
2018-08-27T08:28:03.290Z,934.46
2018-08-27T08:30:13.874Z,934.48
2018-08-27T08:31:47.440Z,934.54
2018-08-27T08:33:57.725Z,934.57
2018-08-27T08:35:30.992Z,934.58
2018-08-27T08:37:41.576Z,934.59
2018-08-27T08:39:15.093Z,934.56
2018-08-27T08:41:25.427Z,934.65
2018-08-27T08:42:58.694Z,934.62
2018-08-27T08:45:09.277Z,934.71
2018-08-27T08:46:42.545Z,934.71
2018-08-27T08:48:53.129Z,934.70
2018-08-27T08:50:26.695Z,934.67
2018-08-27T08:52:36.978Z,934.67
2018-08-27T08:54:10.244Z,934.66
2018-08-27T08:56:21.128Z,934.67
2018-08-27T08:57:54.399Z,934.65
2018-08-27T09:00:04.978Z,934.73
2018-08-27T09:01:38.262Z,934.75
2018-08-27T09:03:48.827Z,934.78
2018-08-27T09:05:22.094Z,934.78
2018-08-27T09:07:32.928Z,934.75
2018-08-27T09:09:06.017Z,934.81
2018-08-27T09:11:16.528Z,934.83
2018-08-27T09:12:49.794Z,934.83
2018-08-27T09:15:00.378Z,934.83
2018-08-27T09:16:33.648Z,934.89
2018-08-27T09:18:44.480Z,935.08
2018-08-27T09:19:44.284Z,934.94
2018-08-27T09:20:44.324Z,934.99
2018-08-27T09:21:44.346Z,934.90
2018-08-27T09:22:44.395Z,934.97
2018-08-27T09:23:44.522Z,934.98
2018-08-27T09:24:44.752Z,935.08
2018-08-27T09:25:44.507Z,935.00
2018-08-27T09:26:44.540Z,935.00
2018-08-27T09:27:44.646Z,935.05
2018-08-27T09:28:44.639Z,935.06
2018-08-27T09:29:44.675Z,935.03
2018-08-27T09:30:44.722Z,935.04
2018-08-27T09:31:44.749Z,935.00
2018-08-27T09:33:18.174Z,934.98
2018-08-27T09:33:44.840Z,935.02
2018-08-27T09:34:44.868Z,935.02
2018-08-27T09:35:45.244Z,935.02
2018-08-27T09:36:44.952Z,935.03
2018-08-27T09:37:44.990Z,935.08
2018-08-27T09:40:28.791Z,935.06
2018-08-27T09:41:28.878Z,935.07
2018-08-27T09:42:28.881Z,935.06
2018-08-27T09:45:12.678Z,935.14
2018-08-27T09:46:12.725Z,935.11
2018-08-27T09:47:13.023Z,935.11
2018-08-27T09:49:56.570Z,935.13
2018-08-27T09:50:56.618Z,935.15
2018-08-27T09:51:56.662Z,935.15
2018-08-27T09:54:40.711Z,935.20
2018-08-27T09:55:40.757Z,935.23
2018-08-27T09:56:40.808Z,935.20
2018-08-27T09:59:24.600Z,935.24
2018-08-27T10:00:24.948Z,935.23
2018-08-27T10:01:24.695Z,935.27
2018-08-27T10:04:08.491Z,935.29
2018-08-27T10:05:08.539Z,935.31
2018-08-27T10:06:08.586Z,935.32
2018-08-27T10:08:52.386Z,935.31
2018-08-27T10:09:52.431Z,935.31
2018-08-27T10:10:52.477Z,935.32
2018-08-27T10:13:36.279Z,935.31
2018-08-27T10:14:36.322Z,935.38
2018-08-27T10:15:36.371Z,935.32
2018-08-27T10:18:20.468Z,935.38
2018-08-27T10:19:20.214Z,935.37
2018-08-27T10:20:20.261Z,935.41
2018-08-27T10:23:04.058Z,935.49
2018-08-27T10:24:04.109Z,935.48
2018-08-27T10:25:04.453Z,935.44
2018-08-27T10:27:47.951Z,935.47
2018-08-27T10:28:48.004Z,935.52
2018-08-27T10:29:48.063Z,935.50
2018-08-27T10:30:48.067Z,935.52
2018-08-27T10:31:48.367Z,935.54
2018-08-27T10:32:48.180Z,935.52
2018-08-27T10:33:48.211Z,935.58
2018-08-27T10:34:48.231Z,935.57
2018-08-27T10:35:48.264Z,935.56
2018-08-27T10:36:48.371Z,935.63
2018-08-27T10:37:48.364Z,935.64
2018-08-27T10:38:48.404Z,935.64
2018-08-27T10:39:48.450Z,935.61
2018-08-27T10:40:48.476Z,935.64
2018-08-27T10:41:48.501Z,935.67
2018-08-27T10:42:48.579Z,935.67
2018-08-27T10:43:48.611Z,935.70
2018-08-27T10:44:48.636Z,935.72
2018-08-27T10:45:48.721Z,935.70
2018-08-27T10:46:48.729Z,935.72
2018-08-27T10:47:48.765Z,935.77
2018-08-27T10:48:48.799Z,935.70
2018-08-27T10:49:48.857Z,935.75
2018-08-27T10:50:48.877Z,935.72
2018-08-27T10:51:48.967Z,935.68
2018-08-27T10:52:48.967Z,935.81
2018-08-27T10:53:49.018Z,935.77
2018-08-27T10:54:49.027Z,935.71
2018-08-27T10:55:49.111Z,935.72
2018-08-27T10:56:49.106Z,935.77
2018-08-27T10:57:49.159Z,935.78
2018-08-27T10:58:49.208Z,935.72
2018-08-27T10:59:49.291Z,935.73
2018-08-27T11:00:49.288Z,935.77
2018-08-27T11:01:49.335Z,935.73
2018-08-27T11:02:49.389Z,935.76
2018-08-27T11:03:49.407Z,935.76
2018-08-27T11:04:49.421Z,935.76
2018-08-27T11:05:49.465Z,935.81
2018-08-27T11:06:49.522Z,935.80
2018-08-27T11:07:49.572Z,935.82
2018-08-27T11:08:49.636Z,935.86
2018-08-27T11:09:49.661Z,935.82
2018-08-27T11:10:49.797Z,935.86
2018-08-27T11:11:49.733Z,935.92
2018-08-27T11:12:49.779Z,935.90
2018-08-27T11:13:49.807Z,935.95
2018-08-27T11:14:49.862Z,935.97
2018-08-27T11:15:50.208Z,936.02
2018-08-27T11:16:49.920Z,936.01
2018-08-27T11:17:49.987Z,936.04
2018-08-27T11:18:49.991Z,936.03
2018-08-27T11:19:50.121Z,936.05
2018-08-27T11:20:50.093Z,936.07
2018-08-27T11:21:50.479Z,936.07
2018-08-27T11:22:50.160Z,936.08
2018-08-27T11:23:50.266Z,936.07
2018-08-27T11:24:50.283Z,936.09
2018-08-27T11:25:50.296Z,936.14
2018-08-27T11:26:50.331Z,936.16
2018-08-27T11:27:50.672Z,936.12
2018-08-27T11:28:50.436Z,936.19
2018-08-27T11:29:50.504Z,936.27
2018-08-27T11:30:50.524Z,936.17
2018-08-27T11:31:50.530Z,936.24
2018-08-27T11:32:50.666Z,936.18
2018-08-27T11:33:50.639Z,936.18
2018-08-27T11:34:50.704Z,936.14
2018-08-27T11:35:50.705Z,936.20
2018-08-27T11:36:50.770Z,936.24
2018-08-27T11:37:50.807Z,936.25
2018-08-27T11:38:50.824Z,936.26
2018-08-27T11:39:50.914Z,936.31
2018-08-27T11:40:50.936Z,936.32
2018-08-27T11:41:50.948Z,936.32
2018-08-27T11:42:50.998Z,936.37
2018-08-27T11:43:51.083Z,936.33
2018-08-27T11:44:51.073Z,936.39
2018-08-27T11:45:51.393Z,936.44
2018-08-27T11:46:51.177Z,936.40
2018-08-27T11:47:51.228Z,936.41
2018-08-27T11:48:51.233Z,936.40
2018-08-27T11:49:51.313Z,936.39
2018-08-27T11:50:51.437Z,936.35
2018-08-27T11:51:51.385Z,936.38
2018-08-27T11:52:51.398Z,936.39
2018-08-27T11:53:51.497Z,936.42
2018-08-27T11:54:51.572Z,936.42
2018-08-27T11:56:24.748Z,936.44
2018-08-27T11:56:51.610Z,936.40
2018-08-27T11:57:51.630Z,936.45
2018-08-27T11:58:51.690Z,936.44
2018-08-27T11:59:51.704Z,936.43
2018-08-27T12:00:51.745Z,936.48
2018-08-27T12:01:51.846Z,936.49
2018-08-27T12:02:51.852Z,936.43
2018-08-27T12:05:35.654Z,936.53
2018-08-27T12:06:35.709Z,936.51
2018-08-27T12:08:08.950Z,936.47
2018-08-27T12:08:35.790Z,936.50
2018-08-27T12:09:35.852Z,936.48
2018-08-27T12:10:35.899Z,936.49
2018-08-27T12:11:35.911Z,936.48
2018-08-27T12:13:09.627Z,936.48
2018-08-27T12:14:09.221Z,936.45
2018-08-27T12:14:36.060Z,936.50
2018-08-27T12:15:36.087Z,936.54
2018-08-27T12:16:36.122Z,936.54
2018-08-27T12:18:09.398Z,936.49
2018-08-27T12:20:19.982Z,936.57
2018-08-27T12:21:20.039Z,936.54
2018-08-27T12:22:53.278Z,936.55
2018-08-27T12:23:20.121Z,936.57
2018-08-27T12:24:20.187Z,936.63
2018-08-27T12:25:20.225Z,936.61
2018-08-27T12:26:20.246Z,936.63
2018-08-27T12:27:53.564Z,936.64
2018-08-27T12:28:53.557Z,936.62
2018-08-27T12:29:20.407Z,936.60
2018-08-27T12:30:20.427Z,936.59
2018-08-27T12:31:20.456Z,936.56
2018-08-27T12:32:53.742Z,936.59
2018-08-27T12:35:04.327Z,936.59
2018-08-27T12:36:04.385Z,936.55
2018-08-27T12:37:37.638Z,936.59
2018-08-27T12:38:04.468Z,936.60
2018-08-27T12:39:04.531Z,936.56
2018-08-27T12:40:04.571Z,936.63
2018-08-27T12:41:04.754Z,936.70
2018-08-27T12:42:37.920Z,936.59
2018-08-27T12:43:37.945Z,936.60
2018-08-27T12:44:04.749Z,936.53
2018-08-27T12:45:04.777Z,936.60
2018-08-27T12:46:04.805Z,936.57
2018-08-27T12:47:38.098Z,936.57
2018-08-27T12:49:48.678Z,936.62
2018-08-27T12:51:22.057Z,936.64
2018-08-27T12:53:32.547Z,936.62
2018-08-27T12:55:05.816Z,936.60
2018-08-27T12:57:16.408Z,936.63
2018-08-27T12:58:49.702Z,936.63
2018-08-27T13:01:00.274Z,936.58
2018-08-27T13:02:33.545Z,936.64
2018-08-27T13:04:44.142Z,936.63
2018-08-27T13:06:17.412Z,936.66
2018-08-27T13:08:28.005Z,936.63
2018-08-27T13:10:01.277Z,936.62
2018-08-27T13:12:11.870Z,936.65
2018-08-27T13:13:45.142Z,936.66
2018-08-27T13:15:55.769Z,936.65
2018-08-27T13:17:29.010Z,936.63
2018-08-27T13:19:39.605Z,936.66
2018-08-27T13:21:12.876Z,936.60
2018-08-27T13:23:23.469Z,936.65
2018-08-27T13:24:56.741Z,936.60
2018-08-27T13:27:07.336Z,936.58
2018-08-27T13:28:40.608Z,936.56
2018-08-27T13:30:51.201Z,936.53
2018-08-27T13:32:24.473Z,936.56
2018-08-27T13:34:35.067Z,936.54
2018-08-27T13:36:08.339Z,936.54
2018-08-27T13:38:19.184Z,936.51
2018-08-27T13:39:52.308Z,936.48
2018-08-27T13:42:02.803Z,936.55
2018-08-27T13:43:36.077Z,936.55
2018-08-27T13:45:46.674Z,936.53
2018-08-27T13:47:19.998Z,936.46
2018-08-27T13:49:30.544Z,936.47
2018-08-27T13:51:03.817Z,936.43
2018-08-27T13:53:14.415Z,936.46
2018-08-27T13:54:47.690Z,936.45
2018-08-27T13:56:58.286Z,936.45
2018-08-27T13:58:31.560Z,936.38
2018-08-27T14:00:42.157Z,936.39
2018-08-27T14:02:15.434Z,936.41
2018-08-27T14:04:26.029Z,936.38
2018-08-27T14:05:59.307Z,936.44
2018-08-27T14:08:09.902Z,936.34
2018-08-27T14:09:43.478Z,936.34
2018-08-27T14:11:53.774Z,936.34
2018-08-27T14:13:27.049Z,936.41
2018-08-27T14:15:37.805Z,936.37
2018-08-27T14:17:10.921Z,936.36
2018-08-27T14:19:21.641Z,936.35
2018-08-27T14:20:54.792Z,936.29
2018-08-27T14:23:05.390Z,936.32
2018-08-27T14:24:38.663Z,936.24
2018-08-27T14:26:49.259Z,936.26
2018-08-27T14:28:22.834Z,936.22
2018-08-27T14:30:33.130Z,936.21
2018-08-27T14:32:06.406Z,936.20
2018-08-27T14:34:16.999Z,936.20
2018-08-27T14:35:50.301Z,936.21
2018-08-27T14:38:00.872Z,936.17
2018-08-27T14:39:34.144Z,936.17
2018-08-27T14:41:44.741Z,936.17
2018-08-27T14:43:18.014Z,936.15
2018-08-27T14:45:28.608Z,936.09
2018-08-27T14:47:01.886Z,936.10
2018-08-27T14:49:12.479Z,936.14
2018-08-27T14:50:45.753Z,936.09
2018-08-27T14:52:56.349Z,936.05
2018-08-27T14:54:29.624Z,936.08
2018-08-27T14:56:40.221Z,935.98
2018-08-27T14:58:13.495Z,936.01
2018-08-27T15:00:24.092Z,935.92
2018-08-27T15:01:57.366Z,935.95
2018-08-27T15:04:07.963Z,935.94
2018-08-27T15:05:41.239Z,935.91
2018-08-27T15:07:51.834Z,935.86
2018-08-27T15:09:25.179Z,935.85
2018-08-27T15:11:35.704Z,935.85
2018-08-27T15:13:09.521Z,935.81
2018-08-27T15:15:20.116Z,935.74
2018-08-27T15:16:52.886Z,935.73
2018-08-27T15:19:03.441Z,935.72
2018-08-27T15:20:36.715Z,935.71
2018-08-27T15:22:47.310Z,935.67
2018-08-27T15:24:20.833Z,935.67
2018-08-27T15:26:31.179Z,935.66
2018-08-27T15:28:04.452Z,935.65
2018-08-27T15:30:15.059Z,935.66
2018-08-27T15:31:48.869Z,935.61
2018-08-27T15:33:58.923Z,935.59
2018-08-27T15:35:32.195Z,935.51
2018-08-27T15:37:43.332Z,935.53
2018-08-27T15:39:16.068Z,935.53
2018-08-27T15:41:27.308Z,935.52
2018-08-27T15:43:00.592Z,935.52
2018-08-27T15:45:10.536Z,935.46
2018-08-27T15:46:44.358Z,935.46
2018-08-27T15:48:54.949Z,935.47
2018-08-27T15:50:27.690Z,935.46
2018-08-27T15:52:38.281Z,935.47
2018-08-27T15:54:11.558Z,935.43
2018-08-27T15:56:22.813Z,935.46
2018-08-27T15:57:55.424Z,935.45
2018-08-27T16:00:06.023Z,935.44
2018-08-27T16:01:39.840Z,935.45
2018-08-27T16:03:50.098Z,935.46
2018-08-27T16:05:23.781Z,935.46
2018-08-27T16:07:33.764Z,935.39
2018-08-27T16:09:07.038Z,935.37
2018-08-27T16:11:18.173Z,935.36
2018-08-27T16:12:52.059Z,935.33
2018-08-27T16:14:17.209Z,935.33
2018-08-27T16:16:01.801Z,935.31
2018-08-27T16:17:35.073Z,935.35
2018-08-27T16:19:46.214Z,935.28
2018-08-27T16:21:19.491Z,935.30
2018-08-27T16:23:30.764Z,935.29
2018-08-27T16:25:03.564Z,935.32
2018-08-27T16:27:13.954Z,935.26
2018-08-27T16:28:47.227Z,935.29
2018-08-27T16:30:58.125Z,935.24
2018-08-27T16:32:31.491Z,935.26
2018-08-27T16:34:41.454Z,935.15
2018-08-27T16:36:15.179Z,935.14
2018-08-27T16:38:25.323Z,935.13
2018-08-27T16:39:59.177Z,935.10
2018-08-27T16:42:09.939Z,935.06
2018-08-27T16:49:45.502Z,935.00
2018-08-27T16:51:55.458Z,934.98
2018-08-27T16:53:27.829Z,934.99
2018-08-27T16:55:38.111Z,934.90
2018-08-27T16:57:11.293Z,934.90
2018-08-27T16:59:21.889Z,934.83
2018-08-27T17:00:55.173Z,934.83
2018-08-27T17:03:06.057Z,934.85
2018-08-27T17:04:39.244Z,934.84
2018-08-27T17:08:23.417Z,934.82
2018-08-27T17:10:34.110Z,934.77
2018-08-27T17:12:06.784Z,934.78
2018-08-27T17:14:19.180Z,934.72
2018-08-27T17:15:50.652Z,934.72
2018-08-27T17:18:01.247Z,934.64
2018-08-27T17:19:01.327Z,934.68
2018-08-27T17:20:01.570Z,934.67
2018-08-27T17:21:01.298Z,934.67
2018-08-27T17:22:01.461Z,934.63
2018-08-27T17:23:01.527Z,934.58
2018-08-27T17:24:01.565Z,934.58
2018-08-27T17:26:01.628Z,934.59
2018-08-27T17:27:01.764Z,934.54
2018-08-27T17:28:02.139Z,934.58
2018-08-27T17:29:01.877Z,934.64
2018-08-27T17:30:02.040Z,934.58
2018-08-27T17:31:01.320Z,934.58
2018-08-27T17:32:01.888Z,934.58
2018-08-27T17:33:02.082Z,934.54
2018-08-27T17:34:01.925Z,934.50
2018-08-27T17:35:02.048Z,934.62
2018-08-27T17:36:02.161Z,934.49
2018-08-27T17:37:02.564Z,934.60
2018-08-27T17:38:02.199Z,934.54
2018-08-27T17:39:02.130Z,934.54
2018-08-27T17:40:02.055Z,934.54
2018-08-27T17:41:02.315Z,934.53
2018-08-27T17:42:02.443Z,934.54
2018-08-27T17:43:02.630Z,934.50
2018-08-27T17:44:02.697Z,934.52
2018-08-27T17:45:02.579Z,934.49
2018-08-27T17:46:02.715Z,934.46
2018-08-27T17:47:02.584Z,934.54
2018-08-27T17:48:02.648Z,934.50
2018-08-27T17:49:03.311Z,934.53
2018-08-27T17:50:02.455Z,934.52
2018-08-27T17:51:02.699Z,934.49
2018-08-27T17:52:03.262Z,934.53
2018-08-27T17:53:02.930Z,934.61
2018-08-27T17:54:02.827Z,934.56
2018-08-27T17:55:02.936Z,934.64
2018-08-27T17:56:02.992Z,934.57
2018-08-27T17:57:03.768Z,934.59
2018-08-27T17:58:03.183Z,934.65
2018-08-27T18:00:03.629Z,934.64
2018-08-27T18:01:03.210Z,934.60
2018-08-27T18:02:02.744Z,934.61
2018-08-27T18:03:02.794Z,934.63
2018-08-27T18:04:03.077Z,934.64
2018-08-27T18:05:03.014Z,934.66
2018-08-27T18:06:02.936Z,934.67
2018-08-27T18:07:02.952Z,934.64
2018-08-27T18:08:03.024Z,934.62
2018-08-27T18:09:03.032Z,934.62
2018-08-27T18:10:04.288Z,934.57
2018-08-27T18:11:03.890Z,934.62
2018-08-27T18:12:04.222Z,934.61
2018-08-27T18:13:03.761Z,934.60
2018-08-27T18:14:03.904Z,934.56
2018-08-27T18:15:04.267Z,934.60
2018-08-27T18:17:03.944Z,934.58
2018-08-27T18:18:03.993Z,934.54
2018-08-27T18:19:04.074Z,934.57
2018-08-27T18:20:04.154Z,934.52
2018-08-27T18:21:04.173Z,934.56
2018-08-27T18:22:04.059Z,934.48
2018-08-27T18:23:04.155Z,934.52
2018-08-27T18:24:03.731Z,934.51
2018-08-27T18:25:03.810Z,934.56
2018-08-27T18:26:03.801Z,934.49
2018-08-27T18:27:03.869Z,934.50
2018-08-27T18:28:03.905Z,934.51
2018-08-27T18:29:03.926Z,934.49
2018-08-27T18:30:04.018Z,934.45
2018-08-27T18:31:04.043Z,934.52
2018-08-27T18:32:04.057Z,934.49
2018-08-27T18:33:04.110Z,934.49
2018-08-27T18:34:04.196Z,934.44
2018-08-27T18:35:04.188Z,934.48
2018-08-27T18:36:04.260Z,934.51
2018-08-27T18:37:04.297Z,934.51
2018-08-27T18:38:04.348Z,934.54
2018-08-27T18:39:04.380Z,934.52
2018-08-27T18:40:04.455Z,934.55
2018-08-27T18:41:04.705Z,934.50
2018-08-27T18:42:04.512Z,934.51
2018-08-27T18:43:04.528Z,934.55
2018-08-27T18:44:04.630Z,934.46
2018-08-27T18:45:04.651Z,934.49
2018-08-27T18:46:04.667Z,934.46
2018-08-27T18:47:04.714Z,934.49
2018-08-27T18:48:05.092Z,934.52
2018-08-27T18:49:04.815Z,934.52
2018-08-27T18:50:04.872Z,934.57
2018-08-27T18:51:04.892Z,934.56
2018-08-27T18:52:04.934Z,934.55
2018-08-27T18:53:05.030Z,934.57
2018-08-27T18:54:05.048Z,934.59
2018-08-27T18:55:05.063Z,934.56
2018-08-27T18:56:05.125Z,934.55
2018-08-27T18:57:05.174Z,934.55
2018-08-27T18:58:05.219Z,934.56
2018-08-27T18:59:05.291Z,934.59
2018-08-27T19:00:05.301Z,934.63